BAW5 KMSP-KFAR
Flight info
| Callsign | BAW5 |
|---|---|
| Flight time | 0h 43m |
| Altitude | 29000 |
| Route | KBREW2 FAR |
| Aircraft | A388/J-SADE2E3FGHIJ3J4J5M1RWXY/LB1D1 |
Departure
| Time | 2026-05-05 04:54 |
|---|---|
| Airport | Minneapolis–Saint Paul International Airport / Wold–Chamberlain Field (KMSP) |
Arrival
| Time | 2026-05-05 05:37 |
|---|---|
| Airport | Hector International Airport (KFAR) |
| Time | Latitude | Longitude | Altitude | Speed | Heading |
|---|---|---|---|---|---|
| 2026-05-05 04:17 | 44.88170 | -93.21366 | 838 ft | 0 kts | 88° |
| 2026-05-05 04:37 | 44.88170 | -93.21373 | 827 ft | 1 kts | 88° |
| 2026-05-05 04:37 | 44.88170 | -93.21382 | 827 ft | 1 kts | 87° |
| 2026-05-05 04:38 | 44.88170 | -93.21391 | 835 ft | 1 kts | 87° |
| 2026-05-05 04:38 | 44.88169 | -93.21405 | 838 ft | 2 kts | 91° |
| 2026-05-05 04:38 | 44.88170 | -93.21421 | 828 ft | 2 kts | 97° |
| 2026-05-05 04:38 | 44.88173 | -93.21436 | 835 ft | 2 kts | 101° |
| 2026-05-05 04:39 | 44.88173 | -93.21442 | 834 ft | 2 kts | 101° |
| 2026-05-05 04:39 | 44.88175 | -93.21457 | 831 ft | 2 kts | 98° |
| 2026-05-05 04:39 | 44.88177 | -93.21480 | 828 ft | 2 kts | 97° |
| 2026-05-05 04:39 | 44.88179 | -93.21504 | 829 ft | 2 kts | 99° |
| 2026-05-05 04:40 | 44.88186 | -93.21525 | 829 ft | 2 kts | 119° |
| 2026-05-05 04:40 | 44.88194 | -93.21545 | 829 ft | 2 kts | 123° |
| 2026-05-05 04:40 | 44.88198 | -93.21552 | 829 ft | 0 kts | 132° |
| 2026-05-05 04:45 | 44.88153 | -93.21498 | 828 ft | 16 kts | 146° |
| 2026-05-05 04:45 | 44.88052 | -93.21409 | 833 ft | 16 kts | 142° |
| 2026-05-05 04:45 | 44.87966 | -93.21230 | 828 ft | 31 kts | 122° |
| 2026-05-05 04:45 | 44.87882 | -93.21043 | 833 ft | 22 kts | 121° |
| 2026-05-05 04:46 | 44.87799 | -93.20850 | 828 ft | 25 kts | 121° |
| 2026-05-05 04:46 | 44.87705 | -93.20632 | 829 ft | 27 kts | 121° |
| 2026-05-05 04:46 | 44.87606 | -93.20401 | 826 ft | 19 kts | 121° |
| 2026-05-05 04:46 | 44.87540 | -93.20245 | 830 ft | 10 kts | 121° |
| 2026-05-05 04:47 | 44.87504 | -93.20166 | 831 ft | 8 kts | 124° |
| 2026-05-05 04:47 | 44.87499 | -93.20156 | 825 ft | 0 kts | 124° |
| 2026-05-05 04:47 | 44.87491 | -93.20139 | 826 ft | 4 kts | 124° |
| 2026-05-05 04:47 | 44.87488 | -93.20131 | 827 ft | 0 kts | 127° |
| 2026-05-05 04:52 | 44.87487 | -93.20131 | 827 ft | 0 kts | 127° |
| 2026-05-05 04:52 | 44.87474 | -93.20108 | 829 ft | 5 kts | 138° |
| 2026-05-05 04:52 | 44.87429 | -93.20086 | 831 ft | 4 kts | 197° |
| 2026-05-05 04:52 | 44.87384 | -93.20207 | 831 ft | 14 kts | 303° |
| 2026-05-05 04:53 | 44.87472 | -93.20399 | 825 ft | 56 kts | 301° |
| 2026-05-05 04:53 | 44.87802 | -93.21155 | 833 ft | 121 kts | 301° |
| 2026-05-05 04:53 | 44.88343 | -93.22193 | 837 ft | 137 kts | 293° |
| 2026-05-05 04:53 | 44.88791 | -93.23484 | 1105 ft | 148 kts | 294° |
| 2026-05-05 04:54 | 44.89187 | -93.24865 | 1536 ft | 156 kts | 291° |
| 2026-05-05 04:54 | 44.89617 | -93.26290 | 1986 ft | 163 kts | 296° |
| 2026-05-05 04:54 | 44.90141 | -93.27756 | 2256 ft | 173 kts | 307° |
| 2026-05-05 04:54 | 44.90877 | -93.29173 | 2440 ft | 184 kts | 307° |
| 2026-05-05 04:55 | 44.91712 | -93.30615 | 2511 ft | 195 kts | 321° |
| 2026-05-05 04:55 | 44.92989 | -93.31378 | 2608 ft | 211 kts | 344° |
| 2026-05-05 04:55 | 44.94522 | -93.31774 | 2949 ft | 234 kts | 348° |
| 2026-05-05 04:55 | 44.96150 | -93.32133 | 3632 ft | 240 kts | 347° |
| 2026-05-05 04:56 | 44.97808 | -93.32532 | 4462 ft | 242 kts | 346° |
| 2026-05-05 04:56 | 44.99469 | -93.32972 | 5238 ft | 245 kts | 345° |
| 2026-05-05 04:56 | 45.01145 | -93.33440 | 6018 ft | 246 kts | 343° |
| 2026-05-05 04:56 | 45.02838 | -93.33927 | 6729 ft | 248 kts | 343° |
| 2026-05-05 04:57 | 45.04537 | -93.34420 | 7436 ft | 251 kts | 343° |
| 2026-05-05 04:57 | 45.06261 | -93.34920 | 8116 ft | 255 kts | 343° |
| 2026-05-05 04:57 | 45.08012 | -93.35427 | 8827 ft | 258 kts | 342° |
| 2026-05-05 04:57 | 45.09778 | -93.35937 | 9525 ft | 261 kts | 342° |
| 2026-05-05 04:58 | 45.11568 | -93.36454 | 10146 ft | 264 kts | 342° |
| 2026-05-05 04:58 | 45.13404 | -93.37070 | 10380 ft | 278 kts | 333° |
| 2026-05-05 04:58 | 45.15023 | -93.38592 | 10572 ft | 286 kts | 310° |
| 2026-05-05 04:58 | 45.16122 | -93.40989 | 10784 ft | 297 kts | 295° |
| 2026-05-05 04:59 | 45.17048 | -93.43589 | 11306 ft | 301 kts | 296° |
| 2026-05-05 04:59 | 45.18046 | -93.46215 | 11886 ft | 304 kts | 297° |
| 2026-05-05 04:59 | 45.19087 | -93.48885 | 12448 ft | 307 kts | 297° |
| 2026-05-05 04:59 | 45.20116 | -93.51508 | 13024 ft | 310 kts | 297° |
| 2026-05-05 05:00 | 45.21169 | -93.54196 | 13587 ft | 313 kts | 297° |
| 2026-05-05 05:00 | 45.22241 | -93.56940 | 14184 ft | 313 kts | 297° |
| 2026-05-05 05:00 | 45.23279 | -93.59601 | 14786 ft | 313 kts | 296° |
| 2026-05-05 05:00 | 45.24331 | -93.62303 | 15374 ft | 313 kts | 296° |
| 2026-05-05 05:01 | 45.25385 | -93.65014 | 15963 ft | 314 kts | 295° |
| 2026-05-05 05:01 | 45.26439 | -93.67730 | 16576 ft | 314 kts | 295° |
| 2026-05-05 05:01 | 45.27495 | -93.70452 | 17217 ft | 314 kts | 295° |
| 2026-05-05 05:01 | 45.28549 | -93.73175 | 17870 ft | 315 kts | 294° |
| 2026-05-05 05:02 | 45.29607 | -93.75907 | 18485 ft | 315 kts | 294° |
| 2026-05-05 05:02 | 45.30659 | -93.78628 | 19134 ft | 313 kts | 294° |
| 2026-05-05 05:02 | 45.31704 | -93.81331 | 19824 ft | 311 kts | 293° |
| 2026-05-05 05:02 | 45.32744 | -93.84033 | 20391 ft | 315 kts | 294° |
| 2026-05-05 05:03 | 45.33803 | -93.86791 | 20823 ft | 319 kts | 294° |
| 2026-05-05 05:03 | 45.34875 | -93.89576 | 21396 ft | 320 kts | 294° |
| 2026-05-05 05:03 | 45.35926 | -93.92298 | 22061 ft | 317 kts | 294° |
| 2026-05-05 05:03 | 45.36983 | -93.95043 | 22667 ft | 317 kts | 293° |
| 2026-05-05 05:04 | 45.38040 | -93.97793 | 23287 ft | 316 kts | 293° |
| 2026-05-05 05:04 | 45.39094 | -94.00541 | 23775 ft | 317 kts | 292° |
| 2026-05-05 05:04 | 45.40150 | -94.03300 | 24163 ft | 319 kts | 292° |
| 2026-05-05 05:04 | 45.41232 | -94.06070 | 24569 ft | 322 kts | 294° |
| 2026-05-05 05:05 | 45.42505 | -94.08735 | 24997 ft | 328 kts | 299° |
| 2026-05-05 05:05 | 45.43980 | -94.11247 | 25340 ft | 333 kts | 302° |
| 2026-05-05 05:05 | 45.45520 | -94.13733 | 25622 ft | 335 kts | 302° |
| 2026-05-05 05:05 | 45.47048 | -94.16242 | 25936 ft | 336 kts | 301° |
| 2026-05-05 05:06 | 45.48578 | -94.18767 | 26239 ft | 337 kts | 301° |
| 2026-05-05 05:06 | 45.50098 | -94.21273 | 26589 ft | 339 kts | 301° |
| 2026-05-05 05:06 | 45.51652 | -94.23844 | 26795 ft | 346 kts | 302° |
| 2026-05-05 05:06 | 45.53234 | -94.26459 | 27044 ft | 349 kts | 302° |
| 2026-05-05 05:07 | 45.54825 | -94.29080 | 27444 ft | 349 kts | 302° |
| 2026-05-05 05:07 | 45.56421 | -94.31713 | 27670 ft | 354 kts | 302° |
| 2026-05-05 05:07 | 45.58050 | -94.34416 | 27633 ft | 365 kts | 302° |
| 2026-05-05 05:07 | 45.59737 | -94.37227 | 27370 ft | 381 kts | 302° |
| 2026-05-05 05:08 | 45.61500 | -94.40164 | 27130 ft | 398 kts | 302° |
| 2026-05-05 05:08 | 45.63340 | -94.43222 | 26909 ft | 413 kts | 303° |
| 2026-05-05 05:08 | 45.65220 | -94.46329 | 27207 ft | 408 kts | 303° |
| 2026-05-05 05:08 | 45.67039 | -94.49310 | 27287 ft | 389 kts | 303° |
| 2026-05-05 05:09 | 45.68781 | -94.52180 | 27127 ft | 376 kts | 303° |
| 2026-05-05 05:09 | 45.70466 | -94.54988 | 26784 ft | 368 kts | 303° |
| 2026-05-05 05:09 | 45.72114 | -94.57742 | 26448 ft | 361 kts | 303° |
| 2026-05-05 05:09 | 45.73733 | -94.60451 | 26124 ft | 355 kts | 303° |
| 2026-05-05 05:10 | 45.75327 | -94.63120 | 25786 ft | 351 kts | 303° |
| 2026-05-05 05:10 | 45.76910 | -94.65776 | 25459 ft | 350 kts | 303° |
| 2026-05-05 05:10 | 45.78490 | -94.68436 | 25139 ft | 350 kts | 304° |
| 2026-05-05 05:10 | 45.80048 | -94.71062 | 24830 ft | 351 kts | 304° |
| 2026-05-05 05:11 | 45.81652 | -94.73760 | 24506 ft | 351 kts | 304° |
| 2026-05-05 05:11 | 45.83215 | -94.76388 | 24207 ft | 351 kts | 304° |
| 2026-05-05 05:11 | 45.84803 | -94.79057 | 23893 ft | 351 kts | 305° |
| 2026-05-05 05:11 | 45.86392 | -94.81721 | 23583 ft | 351 kts | 305° |
| 2026-05-05 05:12 | 45.87976 | -94.84385 | 23280 ft | 351 kts | 307° |
| 2026-05-05 05:12 | 45.89560 | -94.87061 | 22920 ft | 353 kts | 307° |
| 2026-05-05 05:12 | 45.91156 | -94.89755 | 22557 ft | 354 kts | 307° |
| 2026-05-05 05:12 | 45.92758 | -94.92459 | 22198 ft | 356 kts | 307° |
| 2026-05-05 05:13 | 45.94357 | -94.95156 | 21841 ft | 354 kts | 307° |
| 2026-05-05 05:13 | 45.95942 | -94.97827 | 21495 ft | 348 kts | 307° |
| 2026-05-05 05:13 | 45.97502 | -95.00460 | 21146 ft | 344 kts | 307° |
| 2026-05-05 05:13 | 45.99045 | -95.03074 | 20800 ft | 342 kts | 307° |
| 2026-05-05 05:14 | 46.00579 | -95.05677 | 20469 ft | 340 kts | 307° |
| 2026-05-05 05:14 | 46.02104 | -95.08270 | 20131 ft | 339 kts | 307° |
| 2026-05-05 05:14 | 46.03130 | -95.10014 | 19893 ft | 337 kts | 306° |
| 2026-05-05 05:14 | 46.04622 | -95.12552 | 19580 ft | 335 kts | 306° |
| 2026-05-05 05:15 | 46.06120 | -95.15105 | 19287 ft | 333 kts | 307° |
| 2026-05-05 05:15 | 46.07592 | -95.17616 | 18956 ft | 330 kts | 307° |
| 2026-05-05 05:15 | 46.09067 | -95.20133 | 18646 ft | 328 kts | 307° |
| 2026-05-05 05:15 | 46.10533 | -95.22635 | 18326 ft | 326 kts | 307° |
| 2026-05-05 05:16 | 46.11992 | -95.25127 | 17989 ft | 324 kts | 307° |
| 2026-05-05 05:16 | 46.13441 | -95.27607 | 17630 ft | 323 kts | 307° |
| 2026-05-05 05:16 | 46.14883 | -95.30077 | 17273 ft | 321 kts | 307° |
| 2026-05-05 05:16 | 46.16317 | -95.32535 | 16917 ft | 319 kts | 307° |
| 2026-05-05 05:17 | 46.17743 | -95.34981 | 16558 ft | 318 kts | 307° |
| 2026-05-05 05:17 | 46.19164 | -95.37421 | 16175 ft | 317 kts | 307° |
| 2026-05-05 05:17 | 46.20577 | -95.39849 | 15766 ft | 315 kts | 307° |
| 2026-05-05 05:17 | 46.21981 | -95.42264 | 15347 ft | 313 kts | 307° |
| 2026-05-05 05:18 | 46.23375 | -95.44664 | 14959 ft | 311 kts | 307° |
| 2026-05-05 05:18 | 46.24763 | -95.47054 | 14562 ft | 310 kts | 308° |
| 2026-05-05 05:18 | 46.26146 | -95.49439 | 14147 ft | 309 kts | 308° |
| 2026-05-05 05:18 | 46.27524 | -95.51818 | 13765 ft | 307 kts | 308° |
| 2026-05-05 05:19 | 46.28894 | -95.54183 | 13325 ft | 306 kts | 308° |
| 2026-05-05 05:19 | 46.30253 | -95.56532 | 12890 ft | 304 kts | 308° |
| 2026-05-05 05:19 | 46.31607 | -95.58875 | 12454 ft | 302 kts | 308° |
| 2026-05-05 05:19 | 46.32934 | -95.61174 | 12016 ft | 301 kts | 308° |
| 2026-05-05 05:20 | 46.34272 | -95.63492 | 11620 ft | 300 kts | 308° |
| 2026-05-05 05:20 | 46.35608 | -95.65810 | 11250 ft | 299 kts | 308° |
| 2026-05-05 05:20 | 46.36938 | -95.68119 | 10889 ft | 298 kts | 308° |
| 2026-05-05 05:20 | 46.38264 | -95.70423 | 10528 ft | 297 kts | 308° |
| 2026-05-05 05:21 | 46.39584 | -95.72719 | 10177 ft | 295 kts | 308° |
| 2026-05-05 05:21 | 46.40887 | -95.74986 | 9822 ft | 291 kts | 308° |
| 2026-05-05 05:21 | 46.42174 | -95.77226 | 9442 ft | 287 kts | 308° |
| 2026-05-05 05:21 | 46.43447 | -95.79446 | 9075 ft | 284 kts | 309° |
| 2026-05-05 05:22 | 46.44702 | -95.81635 | 8694 ft | 281 kts | 309° |
| 2026-05-05 05:22 | 46.45944 | -95.83805 | 8313 ft | 278 kts | 309° |
| 2026-05-05 05:22 | 46.47173 | -95.85952 | 7942 ft | 275 kts | 309° |
| 2026-05-05 05:22 | 46.48389 | -95.88078 | 7579 ft | 272 kts | 309° |
| 2026-05-05 05:23 | 46.49579 | -95.90161 | 7364 ft | 264 kts | 309° |
| 2026-05-05 05:23 | 46.50737 | -95.92189 | 7165 ft | 257 kts | 309° |
| 2026-05-05 05:23 | 46.51855 | -95.94148 | 7081 ft | 248 kts | 309° |
| 2026-05-05 05:23 | 46.52944 | -95.96059 | 7003 ft | 244 kts | 309° |
| 2026-05-05 05:24 | 46.54027 | -95.97961 | 6926 ft | 244 kts | 309° |
| 2026-05-05 05:24 | 46.55103 | -95.99858 | 6850 ft | 243 kts | 309° |
| 2026-05-05 05:24 | 46.56176 | -96.01750 | 6758 ft | 242 kts | 309° |
| 2026-05-05 05:24 | 46.57246 | -96.03635 | 6699 ft | 242 kts | 309° |
| 2026-05-05 05:25 | 46.58315 | -96.05517 | 6617 ft | 241 kts | 309° |
| 2026-05-05 05:25 | 46.59382 | -96.07396 | 6539 ft | 240 kts | 309° |
| 2026-05-05 05:25 | 46.60440 | -96.09262 | 6452 ft | 239 kts | 309° |
| 2026-05-05 05:25 | 46.61495 | -96.11123 | 6372 ft | 238 kts | 309° |
| 2026-05-05 05:26 | 46.62547 | -96.12981 | 6297 ft | 237 kts | 309° |
| 2026-05-05 05:26 | 46.63583 | -96.14809 | 6222 ft | 237 kts | 309° |
| 2026-05-05 05:26 | 46.64628 | -96.16656 | 6150 ft | 236 kts | 309° |
| 2026-05-05 05:26 | 46.65562 | -96.18600 | 6044 ft | 235 kts | 294° |
| 2026-05-05 05:27 | 46.66124 | -96.20824 | 5979 ft | 233 kts | 290° |
| 2026-05-05 05:27 | 46.66637 | -96.23055 | 5901 ft | 232 kts | 290° |
| 2026-05-05 05:27 | 46.67695 | -96.27478 | 5743 ft | 230 kts | 291° |
| 2026-05-05 05:28 | 46.68238 | -96.29670 | 5659 ft | 230 kts | 291° |
| 2026-05-05 05:28 | 46.68783 | -96.31855 | 5591 ft | 229 kts | 291° |
| 2026-05-05 05:28 | 46.69328 | -96.34031 | 5541 ft | 228 kts | 292° |
| 2026-05-05 05:28 | 46.69866 | -96.36180 | 5540 ft | 224 kts | 292° |
| 2026-05-05 05:29 | 46.70395 | -96.38299 | 5541 ft | 221 kts | 292° |
| 2026-05-05 05:29 | 46.70916 | -96.40384 | 5536 ft | 217 kts | 292° |
| 2026-05-05 05:29 | 46.71427 | -96.42434 | 5531 ft | 214 kts | 292° |
| 2026-05-05 05:29 | 46.71930 | -96.44453 | 5509 ft | 211 kts | 292° |
| 2026-05-05 05:30 | 46.72430 | -96.46461 | 5444 ft | 211 kts | 292° |
| 2026-05-05 05:30 | 46.72929 | -96.48466 | 5366 ft | 210 kts | 292° |
| 2026-05-05 05:30 | 46.73428 | -96.50471 | 5278 ft | 210 kts | 292° |
| 2026-05-05 05:30 | 46.73949 | -96.52552 | 5261 ft | 232 kts | 292° |
| 2026-05-05 05:31 | 46.74522 | -96.54827 | 5256 ft | 238 kts | 292° |
| 2026-05-05 05:31 | 46.75081 | -96.57076 | 5259 ft | 233 kts | 292° |
| 2026-05-05 05:31 | 46.75630 | -96.59287 | 5169 ft | 232 kts | 292° |
| 2026-05-05 05:31 | 46.76175 | -96.61491 | 5111 ft | 227 kts | 292° |
| 2026-05-05 05:32 | 46.76702 | -96.63620 | 4992 ft | 225 kts | 292° |
| 2026-05-05 05:32 | 46.77235 | -96.65778 | 4791 ft | 227 kts | 292° |
| 2026-05-05 05:32 | 46.77741 | -96.67841 | 4939 ft | 203 kts | 291° |
| 2026-05-05 05:32 | 46.78208 | -96.69783 | 4892 ft | 206 kts | 292° |
| 2026-05-05 05:33 | 46.78699 | -96.71770 | 4687 ft | 209 kts | 292° |
| 2026-05-05 05:33 | 46.79197 | -96.73766 | 4438 ft | 209 kts | 292° |
| 2026-05-05 05:33 | 46.79694 | -96.75766 | 4205 ft | 210 kts | 292° |
| 2026-05-05 05:33 | 46.80187 | -96.77766 | 3967 ft | 207 kts | 292° |
| 2026-05-05 05:34 | 46.80652 | -96.79660 | 3703 ft | 190 kts | 294° |
| 2026-05-05 05:34 | 46.81390 | -96.81172 | 3447 ft | 182 kts | 323° |
| 2026-05-05 05:34 | 46.82549 | -96.81861 | 3221 ft | 181 kts | 352° |
| 2026-05-05 05:34 | 46.83745 | -96.81752 | 2933 ft | 164 kts | 3° |
| 2026-05-05 05:35 | 46.84836 | -96.81677 | 2595 ft | 157 kts | 358° |
| 2026-05-05 05:35 | 46.85953 | -96.81707 | 2218 ft | 155 kts | 1° |
| 2026-05-05 05:35 | 46.86965 | -96.81692 | 2002 ft | 138 kts | 1° |
| 2026-05-05 05:35 | 46.87944 | -96.81642 | 1704 ft | 139 kts | 356° |
| 2026-05-05 05:36 | 46.88918 | -96.81681 | 1408 ft | 138 kts | 2° |
| 2026-05-05 05:36 | 46.89954 | -96.81647 | 1180 ft | 147 kts | 360° |
| 2026-05-05 05:36 | 46.90970 | -96.81638 | 920 ft | 142 kts | 0° |
| 2026-05-05 05:36 | 46.91732 | -96.81627 | 907 ft | 60 kts | 2° |
| 2026-05-05 05:37 | 46.91988 | -96.81626 | 905 ft | 23 kts | 359° |
| 2026-05-05 05:37 | 46.92117 | -96.81624 | 909 ft | 16 kts | 0° |
| 2026-05-05 05:37 | 46.92234 | -96.81623 | 910 ft | 17 kts | 0° |
| 2026-05-05 05:37 | 46.92345 | -96.81623 | 914 ft | 15 kts | 0° |
| 2026-05-05 05:38 | 46.92444 | -96.81622 | 917 ft | 15 kts | 0° |
| 2026-05-05 05:38 | 46.92553 | -96.81622 | 914 ft | 17 kts | 0° |
| 2026-05-05 05:38 | 46.92594 | -96.81621 | 913 ft | 9 kts | 0° |
| 2026-05-05 05:38 | 46.92641 | -96.81621 | 913 ft | 0 kts | 356° |
| 2026-05-05 05:39 | 46.92685 | -96.81663 | 914 ft | 13 kts | 300° |
| 2026-05-05 05:39 | 46.92709 | -96.81790 | 913 ft | 13 kts | 276° |
| 2026-05-05 05:39 | 46.92723 | -96.81910 | 911 ft | 10 kts | 301° |
| 2026-05-05 05:39 | 46.92783 | -96.81944 | 909 ft | 11 kts | 360° |
| 2026-05-05 05:40 | 46.92868 | -96.81944 | 910 ft | 13 kts | 0° |
| 2026-05-05 05:40 | 46.92969 | -96.81943 | 910 ft | 15 kts | 0° |
| 2026-05-05 05:40 | 46.93088 | -96.81942 | 907 ft | 19 kts | 0° |
| 2026-05-05 05:40 | 46.93191 | -96.81940 | 909 ft | 7 kts | 1° |
| 2026-05-05 05:41 | 46.93220 | -96.81936 | 909 ft | 5 kts | 11° |
| 2026-05-05 05:41 | 46.93265 | -96.81883 | 910 ft | 11 kts | 72° |
| 2026-05-05 05:41 | 46.93271 | -96.81777 | 908 ft | 2 kts | 89° |
| 2026-05-05 05:41 | 46.93271 | -96.81726 | 907 ft | 0 kts | 89° |
| 2026-05-05 05:42 | 46.93264 | -96.81661 | 908 ft | 11 kts | 120° |
| 2026-05-05 05:42 | 46.93174 | -96.81613 | 907 ft | 21 kts | 179° |
| 2026-05-05 05:42 | 46.92785 | -96.81617 | 912 ft | 93 kts | 181° |
| 2026-05-05 05:42 | 46.91931 | -96.81625 | 904 ft | 149 kts | 180° |
| 2026-05-05 05:43 | 46.90819 | -96.81661 | 1269 ft | 155 kts | 181° |
| 2026-05-05 05:43 | 46.89852 | -96.81708 | 2266 ft | 131 kts | 181° |
| 2026-05-05 05:43 | 46.88942 | -96.81797 | 2889 ft | 127 kts | 185° |
| 2026-05-05 05:43 | 46.88023 | -96.81956 | 2843 ft | 159 kts | 190° |
| 2026-05-05 05:44 | 46.87173 | -96.82147 | 3993 ft | 93 kts | 195° |
| 2026-05-05 05:44 | 46.86374 | -96.82346 | 3899 ft | 146 kts | 198° |
| 2026-05-05 05:44 | 46.85528 | -96.82769 | 4646 ft | 108 kts | 218° |
| 2026-05-05 05:44 | 46.84908 | -96.83402 | 4936 ft | 120 kts | 228° |
| 2026-05-05 05:45 | 46.84196 | -96.84172 | 4885 ft | 152 kts | 181° |
| 2026-05-05 05:45 | 46.83127 | -96.84090 | 4999 ft | 119 kts | 181° |
| 2026-05-05 05:45 | 46.82250 | -96.83952 | 3924 ft | 177 kts | 165° |